createdAt,value
2023-07-14T00:00:41.221Z,97823.22
2023-07-14T00:02:51.897Z,97819.69
2023-07-14T00:05:03.324Z,97818.28
2023-07-14T00:07:16.575Z,97818.63
2023-07-14T00:09:28.099Z,97817.94
2023-07-14T00:11:36.226Z,97812.97
2023-07-14T00:13:44.475Z,97813.53
2023-07-14T00:15:52.520Z,97804.88
2023-07-14T00:18:05.679Z,97804.47
2023-07-14T00:20:32.121Z,97807.59
2023-07-14T00:22:41.106Z,97800.94
2023-07-14T00:24:49.077Z,97808.16
2023-07-14T00:27:00.530Z,97805.88
2023-07-14T00:29:18.457Z,97812.38
2023-07-14T00:31:27.154Z,97806.13
2023-07-14T00:33:35.091Z,97811.44
2023-07-14T00:35:46.597Z,97805.59
2023-07-14T00:37:53.183Z,97805.28
2023-07-14T00:40:08.233Z,97803.25
2023-07-14T00:42:19.277Z,97800.00
2023-07-14T00:44:27.957Z,97797.94
2023-07-14T00:46:37.399Z,97793.97
2023-07-14T00:48:47.073Z,97798.72
2023-07-14T00:51:02.420Z,97800.00
2023-07-14T00:53:14.395Z,97796.19
2023-07-14T00:55:33.850Z,97799.16
2023-07-14T00:57:42.256Z,97801.34
2023-07-14T00:59:50.318Z,97787.69
2023-07-14T01:02:20.791Z,97796.28
2023-07-14T01:04:29.471Z,97795.38
2023-07-14T01:06:42.857Z,97789.97
2023-07-14T01:09:01.965Z,97784.41
2023-07-14T01:11:10.172Z,97783.56
2023-07-14T01:13:17.235Z,97774.78
2023-07-14T01:15:25.775Z,97781.72
2023-07-14T01:17:38.188Z,97781.28
2023-07-14T01:19:51.300Z,97784.53
2023-07-14T01:22:10.884Z,97778.44
2023-07-14T01:24:28.594Z,97782.56
2023-07-14T01:27:03.838Z,97777.75
2023-07-14T01:29:12.203Z,97775.66
2023-07-14T01:31:24.815Z,97778.06
2023-07-14T01:33:35.155Z,97773.22
2023-07-14T01:35:47.114Z,97779.38
2023-07-14T01:37:55.580Z,97774.94
2023-07-14T01:40:04.094Z,97772.59
2023-07-14T01:42:14.953Z,97769.38
2023-07-14T01:44:22.432Z,97777.38
2023-07-14T01:46:31.054Z,97773.13
2023-07-14T01:48:43.979Z,97765.72
2023-07-14T01:50:57.490Z,97765.78
2023-07-14T01:53:12.099Z,97763.56
2023-07-14T01:55:23.493Z,97760.31
2023-07-14T01:57:38.142Z,97762.94
2023-07-14T01:59:50.111Z,97758.75
2023-07-14T02:02:01.865Z,97761.34
2023-07-14T02:04:15.753Z,97758.06
2023-07-14T02:06:23.907Z,97758.03
2023-07-14T02:08:33.332Z,97756.81
2023-07-14T02:10:41.599Z,97755.72
2023-07-14T02:12:53.283Z,97755.13
2023-07-14T02:15:07.253Z,97751.84
2023-07-14T02:17:24.851Z,97752.50
2023-07-14T02:19:33.449Z,97747.19
2023-07-14T02:21:41.884Z,97741.63
2023-07-14T02:23:51.801Z,97740.31
2023-07-14T02:26:11.223Z,97743.59
2023-07-14T02:28:21.848Z,97750.78
2023-07-14T02:30:40.918Z,97746.97
2023-07-14T02:32:54.546Z,97744.53
2023-07-14T02:35:08.734Z,97749.75
2023-07-14T02:37:52.578Z,97749.59
2023-07-14T02:40:06.294Z,97748.59
2023-07-14T02:42:14.195Z,97747.22
2023-07-14T02:44:30.118Z,97753.94
2023-07-14T02:46:44.429Z,97749.28
2023-07-14T02:48:55.698Z,97757.97
2023-07-14T02:51:06.364Z,97744.56
2023-07-14T02:53:15.078Z,97743.84
2023-07-14T02:55:23.288Z,97741.06
2023-07-14T02:57:31.291Z,97746.94
2023-07-14T02:59:42.330Z,97737.59
2023-07-14T03:01:53.034Z,97731.16
2023-07-14T03:04:01.208Z,97731.81
2023-07-14T03:06:09.850Z,97728.50
2023-07-14T03:08:19.568Z,97728.88
2023-07-14T03:10:27.588Z,97733.13
2023-07-14T03:12:35.944Z,97723.06
2023-07-14T03:14:46.833Z,97719.91
2023-07-14T03:16:55.085Z,97718.44
2023-07-14T03:19:03.098Z,97721.25
2023-07-14T03:21:12.339Z,97716.03
2023-07-14T03:23:20.564Z,97706.41
2023-07-14T03:25:30.284Z,97706.91
2023-07-14T03:27:38.586Z,97703.59
2023-07-14T03:29:49.716Z,97710.06
2023-07-14T03:31:57.798Z,97697.81
2023-07-14T03:34:05.663Z,97704.72
2023-07-14T03:36:15.868Z,97700.00
2023-07-14T03:38:24.209Z,97694.75
2023-07-14T03:40:32.748Z,97688.69
2023-07-14T03:42:41.555Z,97686.13
2023-07-14T03:44:53.181Z,97695.97
2023-07-14T03:47:03.875Z,97696.81
2023-07-14T03:49:11.988Z,97691.00
2023-07-14T03:51:20.811Z,97687.94
2023-07-14T03:53:28.910Z,97694.16
2023-07-14T03:55:36.828Z,97696.31
2023-07-14T03:58:01.965Z,97688.28
2023-07-14T04:00:22.623Z,97692.53
2023-07-14T04:02:32.877Z,97691.75
2023-07-14T04:04:40.867Z,97699.97
2023-07-14T04:06:49.181Z,97694.34
2023-07-14T04:08:58.560Z,97694.41
2023-07-14T04:11:06.464Z,97695.53
2023-07-14T04:13:15.336Z,97697.06
2023-07-14T04:15:25.863Z,97700.16
2023-07-14T04:17:34.421Z,97706.19
2023-07-14T04:19:42.573Z,97707.09
2023-07-14T04:21:51.235Z,97716.72
2023-07-14T04:24:00.485Z,97716.72
2023-07-14T04:26:09.278Z,97717.13
2023-07-14T04:28:17.197Z,97723.97
2023-07-14T04:30:27.749Z,97719.03
2023-07-14T04:32:35.935Z,97721.50
2023-07-14T04:34:45.005Z,97718.88
2023-07-14T04:36:53.199Z,97723.69
2023-07-14T04:39:06.905Z,97727.91
2023-07-14T04:41:17.335Z,97723.09
2023-07-14T04:43:25.828Z,97720.25
2023-07-14T04:45:41.848Z,97719.41
2023-07-14T04:47:52.388Z,97708.47
2023-07-14T04:50:00.578Z,97717.13
2023-07-14T04:52:08.758Z,97718.44
2023-07-14T04:54:16.971Z,97709.22
2023-07-14T04:56:22.896Z,97706.38
2023-07-14T04:58:31.007Z,97706.09
2023-07-14T05:00:43.836Z,97704.22
2023-07-14T05:02:52.247Z,97700.13
2023-07-14T05:05:16.297Z,97697.53
2023-07-14T05:07:27.175Z,97690.13
2023-07-14T05:09:35.873Z,97696.47
2023-07-14T05:11:44.549Z,97694.59
2023-07-14T05:13:55.584Z,97691.91
2023-07-14T05:16:06.419Z,97695.97
2023-07-14T05:18:14.914Z,97689.22
2023-07-14T05:20:23.860Z,97689.81
2023-07-14T05:22:32.446Z,97695.59
2023-07-14T05:24:40.402Z,97688.78
2023-07-14T05:26:48.446Z,97699.16
2023-07-14T05:28:56.419Z,97692.56
2023-07-14T05:31:09.331Z,97694.38
2023-07-14T05:33:17.931Z,97697.47
2023-07-14T05:35:26.685Z,97703.28
2023-07-14T05:37:32.042Z,97698.47
2023-07-14T05:39:40.260Z,97700.81
2023-07-14T05:41:48.381Z,97699.75
2023-07-14T05:43:56.448Z,97712.38
2023-07-14T05:46:07.125Z,97714.13
2023-07-14T05:48:12.834Z,97722.31
2023-07-14T05:50:20.977Z,97719.13
2023-07-14T05:52:29.058Z,97730.53
2023-07-14T05:54:37.037Z,97746.00
2023-07-14T05:56:45.097Z,97759.53
2023-07-14T05:58:53.388Z,97755.75
2023-07-14T06:01:01.700Z,97762.03
2023-07-14T06:03:17.975Z,97745.25
2023-07-14T06:05:27.209Z,97743.00
2023-07-14T06:07:35.488Z,97743.84
2023-07-14T06:09:45.102Z,97737.31
2023-07-14T06:11:53.224Z,97740.13
2023-07-14T06:14:01.666Z,97744.19
2023-07-14T06:16:09.644Z,97746.63
2023-07-14T06:18:21.596Z,97733.16
2023-07-14T06:20:31.948Z,97742.13
2023-07-14T06:22:40.683Z,97727.81
2023-07-14T06:24:49.714Z,97734.94
2023-07-14T06:26:58.059Z,97745.09
2023-07-14T06:29:06.785Z,97766.59
2023-07-14T06:31:17.609Z,97767.84
2023-07-14T06:33:28.660Z,97785.16
2023-07-14T06:35:36.552Z,97770.16
2023-07-14T06:37:44.494Z,97772.13
2023-07-14T06:39:52.460Z,97769.50
2023-07-14T06:42:00.564Z,97770.19
2023-07-14T06:44:24.682Z,97774.66
2023-07-14T06:46:35.458Z,97779.97
2023-07-14T06:48:47.348Z,97788.16
2023-07-14T06:50:55.472Z,97787.41
2023-07-14T06:53:03.772Z,97787.69
2023-07-14T06:55:11.020Z,97791.78
2023-07-14T06:57:19.141Z,97793.19
2023-07-14T06:59:27.332Z,97797.78
2023-07-14T07:01:35.513Z,97791.75
2023-07-14T07:03:46.481Z,97783.31
2023-07-14T07:05:55.294Z,97781.88
2023-07-14T07:08:03.382Z,97776.59
2023-07-14T07:10:13.011Z,97780.44
2023-07-14T07:12:22.451Z,97772.53
2023-07-14T07:14:31.510Z,97765.44
2023-07-14T07:16:40.362Z,97761.63
2023-07-14T07:18:51.454Z,97740.78
2023-07-14T07:20:59.708Z,97697.09
2023-07-14T07:23:08.426Z,97696.34
2023-07-14T07:25:18.330Z,97688.78
2023-07-14T07:27:26.393Z,97696.81
2023-07-14T07:29:35.347Z,97685.09
2023-07-14T07:31:43.602Z,97678.47
2023-07-14T07:33:54.520Z,97688.59
2023-07-14T07:36:16.240Z,97691.97
2023-07-14T07:38:24.501Z,97674.34
2023-07-14T07:40:33.043Z,97695.59
2023-07-14T07:42:41.810Z,97685.88
2023-07-14T07:44:49.947Z,97676.97
2023-07-14T07:47:14.130Z,97684.63
2023-07-14T07:49:24.702Z,97667.84
2023-07-14T07:51:33.690Z,97652.00
2023-07-14T07:53:42.010Z,97656.28
2023-07-14T07:55:56.254Z,97653.56
2023-07-14T07:58:04.428Z,97643.47
2023-07-14T08:00:14.643Z,97652.19
2023-07-14T08:02:22.917Z,97643.19
2023-07-14T08:04:33.847Z,97630.66
2023-07-14T08:06:42.233Z,97630.56
2023-07-14T08:08:50.666Z,97619.91
2023-07-14T08:10:58.986Z,97606.84
2023-07-14T08:13:07.411Z,97600.44
2023-07-14T08:15:15.660Z,97605.34
2023-07-14T08:17:28.714Z,97605.44
2023-07-14T08:19:39.567Z,97613.06
2023-07-14T08:21:47.725Z,97612.09
2023-07-14T08:23:55.726Z,97606.41
2023-07-14T08:26:05.656Z,97592.72
2023-07-14T08:28:13.995Z,97589.16
2023-07-14T08:30:22.774Z,97594.22
2023-07-14T08:32:30.902Z,97590.25
2023-07-14T08:34:41.808Z,97590.69
2023-07-14T08:36:49.853Z,97591.25
2023-07-14T08:38:58.037Z,97585.81
2023-07-14T08:41:10.990Z,97585.38
2023-07-14T08:43:31.416Z,97581.50
2023-07-14T08:45:39.729Z,97580.94
2023-07-14T08:47:59.147Z,97569.69
2023-07-14T08:50:18.297Z,97571.66
2023-07-14T08:52:31.039Z,97569.50
2023-07-14T08:54:46.877Z,97562.56
2023-07-14T08:56:55.954Z,97568.56
2023-07-14T08:59:04.277Z,97566.69
2023-07-14T09:01:21.803Z,97560.41
2023-07-14T09:03:40.814Z,97568.78
2023-07-14T09:05:57.831Z,97565.13
2023-07-14T09:08:06.535Z,97571.41
2023-07-14T09:10:15.655Z,97558.16
2023-07-14T09:12:30.248Z,97557.19
2023-07-14T09:15:03.851Z,97565.38
2023-07-14T09:17:22.609Z,97557.44
2023-07-14T09:19:44.285Z,97553.03
2023-07-14T09:22:03.324Z,97554.91
2023-07-14T09:24:18.824Z,97556.78
2023-07-14T09:26:34.676Z,97553.56
2023-07-14T09:28:45.755Z,97553.97
2023-07-14T09:30:55.079Z,97548.63
2023-07-14T09:33:07.754Z,97552.84
2023-07-14T09:35:21.500Z,97549.44
2023-07-14T09:37:37.381Z,97550.25
2023-07-14T09:39:48.019Z,97540.44
2023-07-14T09:41:58.659Z,97548.84
2023-07-14T09:44:06.988Z,97544.22
2023-07-14T09:46:19.397Z,97543.56
2023-07-14T09:48:30.234Z,97541.88
2023-07-14T09:50:41.273Z,97540.81
2023-07-14T09:52:57.786Z,97544.00
2023-07-14T09:55:05.902Z,97540.03
2023-07-14T09:57:28.937Z,97535.91
2023-07-14T09:59:54.262Z,97536.13
2023-07-14T10:02:04.141Z,97536.25
2023-07-14T10:04:18.066Z,97533.94
2023-07-14T10:06:28.361Z,97534.50
2023-07-14T10:08:49.127Z,97534.56
2023-07-14T10:11:01.227Z,97533.00
2023-07-14T10:13:21.356Z,97530.94
2023-07-14T10:15:35.852Z,97527.28
2023-07-14T10:17:46.249Z,97519.69
2023-07-14T10:19:57.351Z,97522.31
2023-07-14T10:22:09.248Z,97520.16
2023-07-14T10:24:25.483Z,97512.09
2023-07-14T10:26:35.844Z,97508.88
2023-07-14T10:28:45.874Z,97514.34
2023-07-14T10:31:02.899Z,97515.41
2023-07-14T10:33:20.112Z,97506.19
2023-07-14T10:35:32.286Z,97514.22
2023-07-14T10:37:44.604Z,97505.38
2023-07-14T10:40:00.913Z,97508.56
2023-07-14T10:42:14.057Z,97499.63
2023-07-14T10:44:29.736Z,97505.56
2023-07-14T10:46:43.611Z,97495.28
2023-07-14T10:48:56.805Z,97490.44
2023-07-14T10:51:10.305Z,97493.47
2023-07-14T10:53:22.924Z,97503.03
2023-07-14T10:55:35.795Z,97496.69
2023-07-14T10:57:49.681Z,97509.22
2023-07-14T11:00:03.008Z,97492.94
2023-07-14T11:02:27.298Z,97492.72
2023-07-14T11:04:38.670Z,97493.59
2023-07-14T11:06:52.511Z,97496.75
2023-07-14T11:09:03.329Z,97490.19
2023-07-14T11:11:24.199Z,97491.47
2023-07-14T11:13:41.351Z,97489.22
2023-07-14T11:15:53.807Z,97481.22
2023-07-14T11:18:09.182Z,97484.13
2023-07-14T11:20:25.989Z,97492.28
2023-07-14T11:23:00.721Z,97478.31
2023-07-14T11:25:18.170Z,97489.81
2023-07-14T11:27:34.918Z,97473.56
2023-07-14T11:29:52.210Z,97453.94
2023-07-14T11:32:03.706Z,97450.97
2023-07-14T11:34:32.222Z,97452.00
2023-07-14T11:36:46.620Z,97453.91
2023-07-14T11:39:01.749Z,97466.78
2023-07-14T11:41:09.976Z,97461.66
2023-07-14T11:43:29.511Z,97456.38
2023-07-14T11:45:35.399Z,97460.44
2023-07-14T11:47:45.756Z,97461.28
2023-07-14T11:49:58.625Z,97458.50
2023-07-14T11:52:16.172Z,97445.88
2023-07-14T11:54:28.431Z,97460.69
2023-07-14T11:56:44.937Z,97449.94
2023-07-14T11:59:09.880Z,97449.34
2023-07-14T12:01:21.036Z,97453.78
2023-07-14T12:03:35.944Z,97450.50
2023-07-14T12:05:44.592Z,97435.53
2023-07-14T12:08:28.332Z,97432.31
2023-07-14T12:10:54.263Z,97425.16
2023-07-14T12:13:38.906Z,97430.28
2023-07-14T12:15:51.365Z,97421.19
2023-07-14T12:18:19.335Z,97434.22
2023-07-14T12:20:37.965Z,97422.44
2023-07-14T12:22:50.307Z,97431.53
2023-07-14T12:25:01.419Z,97433.53
2023-07-14T12:27:22.703Z,97427.94
2023-07-14T12:29:44.383Z,97421.63
2023-07-14T12:32:03.914Z,97428.38
2023-07-14T12:34:19.028Z,97416.19
2023-07-14T12:36:30.577Z,97413.81
2023-07-14T12:38:39.167Z,97413.22
2023-07-14T12:40:45.715Z,97408.53
2023-07-14T12:42:55.790Z,97402.53
2023-07-14T12:45:04.100Z,97395.63
2023-07-14T12:47:19.926Z,97405.41
2023-07-14T12:49:37.933Z,97396.56
2023-07-14T12:51:46.273Z,97391.50
2023-07-14T12:54:02.233Z,97385.22
2023-07-14T12:56:17.331Z,97382.34
2023-07-14T12:58:28.023Z,97378.00
2023-07-14T13:00:38.717Z,97376.00
2023-07-14T13:02:51.888Z,97376.34
2023-07-14T13:05:00.133Z,97376.56
2023-07-14T13:07:11.898Z,97370.47
2023-07-14T13:09:26.105Z,97366.97
2023-07-14T13:11:41.072Z,97363.41
2023-07-14T13:13:52.212Z,97353.56
2023-07-14T13:16:05.458Z,97363.53
2023-07-14T13:18:31.987Z,97359.09
2023-07-14T13:20:43.088Z,97354.19
2023-07-14T13:23:09.491Z,97347.78
2023-07-14T13:25:21.689Z,97351.97
2023-07-14T13:27:31.742Z,97353.44
2023-07-14T13:29:41.887Z,97353.63
2023-07-14T13:31:50.800Z,97350.38
2023-07-14T13:34:02.958Z,97334.28
2023-07-14T13:36:15.176Z,97334.03
2023-07-14T13:38:23.334Z,97333.34
2023-07-14T13:40:37.449Z,97333.75
2023-07-14T13:42:50.845Z,97323.28
2023-07-14T13:45:02.352Z,97327.97
2023-07-14T13:47:20.211Z,97319.94
2023-07-14T13:49:31.637Z,97315.22
2023-07-14T13:51:40.083Z,97310.03
2023-07-14T13:53:48.329Z,97311.56
2023-07-14T13:55:57.034Z,97295.97
2023-07-14T13:58:26.458Z,97295.38
2023-07-14T14:00:34.882Z,97298.06
2023-07-14T14:02:46.102Z,97304.53
2023-07-14T14:04:59.558Z,97292.94
2023-07-14T14:07:08.550Z,97302.56
2023-07-14T14:09:24.068Z,97286.56
2023-07-14T14:11:32.154Z,97294.97
2023-07-14T14:13:40.244Z,97277.72
2023-07-14T14:15:49.349Z,97276.59
2023-07-14T14:18:00.665Z,97266.28
2023-07-14T14:20:21.130Z,97261.19
2023-07-14T14:22:30.993Z,97256.47
2023-07-14T14:24:39.087Z,97250.16
2023-07-14T14:26:47.240Z,97253.88
2023-07-14T14:28:55.279Z,97249.69
2023-07-14T14:31:05.183Z,97249.69
2023-07-14T14:33:17.530Z,97243.50
2023-07-14T14:35:31.906Z,97240.72
2023-07-14T14:37:39.864Z,97234.28
2023-07-14T14:39:48.176Z,97237.78
2023-07-14T14:41:56.927Z,97228.78
2023-07-14T14:44:09.764Z,97220.47
2023-07-14T14:46:18.143Z,97214.41
2023-07-14T14:48:39.366Z,97205.50
2023-07-14T14:50:53.619Z,97202.47
2023-07-14T14:53:01.861Z,97197.53
2023-07-14T14:55:11.563Z,97200.59
2023-07-14T14:57:21.908Z,97196.09
2023-07-14T14:59:32.120Z,97197.38
2023-07-14T15:01:39.802Z,97199.09
2023-07-14T15:03:48.334Z,97200.00
2023-07-14T15:05:59.828Z,97199.53
2023-07-14T15:08:08.801Z,97194.28
2023-07-14T15:10:17.991Z,97181.28
2023-07-14T15:12:26.777Z,97181.16
2023-07-14T15:14:38.258Z,97186.16
2023-07-14T15:16:46.522Z,97177.59
2023-07-14T15:18:54.728Z,97176.31
2023-07-14T15:21:09.378Z,97176.22
2023-07-14T15:23:19.429Z,97179.63
2023-07-14T15:25:28.037Z,97174.59
2023-07-14T15:27:39.550Z,97174.59
2023-07-14T15:29:48.034Z,97166.84
2023-07-14T15:31:56.042Z,97164.81
2023-07-14T15:34:04.680Z,97159.56
2023-07-14T15:36:19.204Z,97164.03
2023-07-14T15:38:27.807Z,97165.25
2023-07-14T15:40:43.807Z,97160.25
2023-07-14T15:42:52.300Z,97162.78
2023-07-14T15:45:00.731Z,97158.19
2023-07-14T15:47:09.340Z,97159.09
2023-07-14T15:49:20.841Z,97160.25
2023-07-14T15:51:33.906Z,97147.06
2023-07-14T15:53:44.534Z,97142.38
2023-07-14T15:55:52.931Z,97142.47
2023-07-14T15:58:01.034Z,97138.25
2023-07-14T16:00:15.374Z,97142.06
2023-07-14T16:02:23.661Z,97138.91
2023-07-14T16:04:31.890Z,97134.72
2023-07-14T16:06:43.374Z,97125.91
2023-07-14T16:08:53.842Z,97129.56
2023-07-14T16:11:02.167Z,97131.06
2023-07-14T16:13:11.907Z,97120.13
2023-07-14T16:15:25.510Z,97114.63
2023-07-14T16:17:34.897Z,97110.66
2023-07-14T16:19:43.242Z,97103.75
2023-07-14T16:21:56.737Z,97107.50
2023-07-14T16:24:05.783Z,97103.94
2023-07-14T16:26:15.564Z,97104.69
2023-07-14T16:28:24.111Z,97108.16
2023-07-14T16:30:33.814Z,97096.91
2023-07-14T16:32:41.963Z,97099.34
2023-07-14T16:34:50.726Z,97093.25
2023-07-14T16:37:01.959Z,97092.72
2023-07-14T16:39:16.253Z,97096.19
2023-07-14T16:41:25.071Z,97093.31
2023-07-14T16:43:33.072Z,97093.84
2023-07-14T16:45:41.904Z,97089.34
2023-07-14T16:47:50.390Z,97099.16
2023-07-14T16:50:01.146Z,97087.75
2023-07-14T16:52:22.391Z,97095.53
2023-07-14T16:54:32.582Z,97093.81
2023-07-14T16:56:41.091Z,97093.16
2023-07-14T16:58:49.309Z,97092.47
2023-07-14T17:00:58.620Z,97092.16
2023-07-14T17:03:19.695Z,97088.75
2023-07-14T17:05:30.509Z,97086.31
2023-07-14T17:07:41.237Z,97085.75
2023-07-14T17:09:51.086Z,97086.13
2023-07-14T17:12:00.443Z,97072.63
2023-07-14T17:14:08.680Z,97073.22
2023-07-14T17:16:17.361Z,97064.09
2023-07-14T17:18:29.858Z,97067.88
2023-07-14T17:20:38.832Z,97071.22
2023-07-14T17:22:50.747Z,97068.47
2023-07-14T17:24:59.093Z,97067.88
2023-07-14T17:27:08.054Z,97065.75
2023-07-14T17:29:18.990Z,97064.91
2023-07-14T17:31:27.465Z,97057.28
2023-07-14T17:33:35.579Z,97053.19
2023-07-14T17:35:44.406Z,97060.97
2023-07-14T17:37:58.888Z,97051.72
2023-07-14T17:40:17.948Z,97051.66
2023-07-14T17:42:29.261Z,97043.31
2023-07-14T17:44:37.282Z,97046.47
2023-07-14T17:46:45.339Z,97041.66
2023-07-14T17:48:53.422Z,97042.47
2023-07-14T17:51:05.439Z,97036.78
2023-07-14T17:53:23.723Z,97035.78
2023-07-14T17:55:31.885Z,97029.78
2023-07-14T17:57:40.643Z,97039.03
2023-07-14T17:59:52.672Z,97038.44
2023-07-14T18:02:08.618Z,97030.84
2023-07-14T18:04:17.031Z,97033.66
2023-07-14T18:06:23.465Z,97038.81
2023-07-14T18:08:35.531Z,97040.06
2023-07-14T18:10:44.753Z,97038.56
2023-07-14T18:12:53.083Z,97033.63
2023-07-14T18:15:01.323Z,97042.44
2023-07-14T18:17:09.697Z,97041.59
2023-07-14T18:19:18.728Z,97037.44
2023-07-14T18:21:27.568Z,97037.53
2023-07-14T18:23:39.382Z,97032.94
2023-07-14T18:25:47.536Z,97033.59
2023-07-14T18:27:57.149Z,97028.44
2023-07-14T18:30:05.933Z,97030.59
2023-07-14T18:32:15.146Z,97034.22
2023-07-14T18:34:24.724Z,97029.88
2023-07-14T18:36:35.873Z,97029.06
2023-07-14T18:38:46.409Z,97031.22
2023-07-14T18:40:55.424Z,97027.63
2023-07-14T18:43:03.538Z,97019.53
2023-07-14T18:45:16.147Z,97027.50
2023-07-14T18:47:24.253Z,97028.19
2023-07-14T18:49:34.942Z,97029.50
2023-07-14T18:51:44.433Z,97028.56
2023-07-14T18:53:59.223Z,97025.66
2023-07-14T18:56:08.256Z,97029.91
2023-07-14T18:58:19.818Z,97029.75
2023-07-14T19:00:27.933Z,97030.59
2023-07-14T19:02:39.057Z,97031.91
2023-07-14T19:04:47.402Z,97026.03
2023-07-14T19:06:56.950Z,97023.28
2023-07-14T19:09:17.633Z,97025.81
2023-07-14T19:11:28.228Z,97025.63
2023-07-14T19:13:39.896Z,97021.25
2023-07-14T19:15:49.971Z,97019.16
2023-07-14T19:17:58.238Z,97017.28
2023-07-14T19:20:11.446Z,97027.53
2023-07-14T19:22:25.578Z,97023.31
2023-07-14T19:24:36.897Z,97025.22
2023-07-14T19:26:45.730Z,97023.78
2023-07-14T19:28:54.703Z,97025.41
2023-07-14T19:31:03.077Z,97021.47
2023-07-14T19:33:18.117Z,97031.50
2023-07-14T19:35:26.140Z,97031.28
2023-07-14T19:37:34.285Z,97024.78
2023-07-14T19:39:46.056Z,97027.09
2023-07-14T19:41:56.088Z,97031.66
2023-07-14T19:44:06.399Z,97028.28
2023-07-14T19:46:16.817Z,97028.66
2023-07-14T19:48:26.878Z,97040.34
2023-07-14T19:50:34.865Z,97039.31
2023-07-14T19:52:43.240Z,97037.41
2023-07-14T19:54:54.016Z,97036.56
2023-07-14T19:57:02.028Z,97041.34
2023-07-14T19:59:18.109Z,97044.94
2023-07-14T20:01:26.760Z,97045.56
2023-07-14T20:03:34.896Z,97048.06
2023-07-14T20:05:43.744Z,97048.44
2023-07-14T20:07:52.816Z,97048.44
2023-07-14T20:10:08.142Z,97040.81
2023-07-14T20:12:19.722Z,97047.69
2023-07-14T20:14:30.763Z,97055.34
2023-07-14T20:16:38.870Z,97058.88
2023-07-14T20:18:47.430Z,97063.41
2023-07-14T20:20:57.746Z,97063.59
2023-07-14T20:23:07.088Z,97067.69
2023-07-14T20:25:21.290Z,97069.28
2023-07-14T20:27:29.758Z,97071.94
2023-07-14T20:29:37.730Z,97072.75
2023-07-14T20:31:48.583Z,97066.19
2023-07-14T20:33:56.844Z,97069.09
2023-07-14T20:36:05.493Z,97074.63
2023-07-14T20:38:16.408Z,97072.47
2023-07-14T20:40:29.688Z,97072.91
2023-07-14T20:42:37.846Z,97077.03
2023-07-14T20:44:47.836Z,97069.09
2023-07-14T20:46:56.003Z,97069.47
2023-07-14T20:49:17.638Z,97069.25
2023-07-14T20:51:27.962Z,97072.91
2023-07-14T20:53:36.272Z,97069.09
2023-07-14T20:55:49.585Z,97076.72
2023-07-14T20:57:58.289Z,97063.53
2023-07-14T21:00:09.085Z,97061.88
2023-07-14T21:02:23.742Z,97066.66
2023-07-14T21:04:31.916Z,97068.88
2023-07-14T21:06:40.210Z,97063.81
2023-07-14T21:08:49.022Z,97064.81
2023-07-14T21:11:05.938Z,97062.53
2023-07-14T21:13:19.680Z,97067.69
2023-07-14T21:15:28.336Z,97074.88
2023-07-14T21:17:36.341Z,97070.28
2023-07-14T21:19:44.979Z,97076.75
2023-07-14T21:21:52.890Z,97071.16
2023-07-14T21:24:02.658Z,97077.47
2023-07-14T21:26:21.064Z,97076.09
2023-07-14T21:28:30.502Z,97085.81
2023-07-14T21:30:38.725Z,97083.75
2023-07-14T21:32:47.103Z,97082.13
2023-07-14T21:34:56.640Z,97078.69
2023-07-14T21:37:04.680Z,97087.00
2023-07-14T21:39:16.221Z,97086.44
2023-07-14T21:41:26.455Z,97082.78
2023-07-14T21:43:40.064Z,97089.31
2023-07-14T21:45:49.556Z,97086.81
2023-07-14T21:47:57.638Z,97089.53
2023-07-14T21:50:05.793Z,97090.94
2023-07-14T21:52:26.298Z,97090.78
2023-07-14T21:54:35.017Z,97087.03
2023-07-14T21:56:46.091Z,97080.78
2023-07-14T21:58:54.262Z,97083.38
2023-07-14T22:01:03.534Z,97083.13
2023-07-14T22:03:11.567Z,97086.84
2023-07-14T22:05:20.443Z,97087.03
2023-07-14T22:07:29.366Z,97087.75
2023-07-14T22:09:37.662Z,97085.03
2023-07-14T22:11:48.637Z,97089.09
2023-07-14T22:13:56.951Z,97086.81
2023-07-14T22:16:06.625Z,97087.53
2023-07-14T22:18:19.217Z,97085.31
2023-07-14T22:20:32.323Z,97078.13
2023-07-14T22:22:40.636Z,97083.81
2023-07-14T22:24:50.576Z,97080.91
2023-07-14T22:27:02.629Z,97082.97
2023-07-14T22:29:11.124Z,97082.00
2023-07-14T22:31:21.859Z,97082.47
2023-07-14T22:33:34.608Z,97087.06
2023-07-14T22:35:42.765Z,97088.75
2023-07-14T22:37:50.962Z,97090.81
2023-07-14T22:39:58.981Z,97091.34
2023-07-14T22:42:10.149Z,97093.56
2023-07-14T22:44:20.165Z,97099.53
2023-07-14T22:46:26.216Z,97096.66
2023-07-14T22:48:34.481Z,97099.22
2023-07-14T22:50:43.003Z,97088.06
2023-07-14T22:52:51.582Z,97090.47
2023-07-14T22:54:59.696Z,97088.16
2023-07-14T22:57:15.678Z,97092.56
2023-07-14T22:59:23.702Z,97089.88
2023-07-14T23:01:35.557Z,97089.53
2023-07-14T23:03:44.183Z,97088.97
2023-07-14T23:05:53.926Z,97086.91
2023-07-14T23:08:02.026Z,97086.34
2023-07-14T23:10:12.221Z,97083.72
2023-07-14T23:12:22.947Z,97085.19
2023-07-14T23:14:31.049Z,97079.25
2023-07-14T23:16:39.098Z,97076.81
2023-07-14T23:18:47.978Z,97084.75
2023-07-14T23:21:00.001Z,97076.00
2023-07-14T23:23:13.108Z,97076.63
2023-07-14T23:25:23.570Z,97080.38
2023-07-14T23:27:34.324Z,97069.44
2023-07-14T23:29:43.950Z,97072.06
2023-07-14T23:31:54.907Z,97081.31
2023-07-14T23:34:03.062Z,97071.28
2023-07-14T23:36:14.753Z,97075.94
2023-07-14T23:38:23.831Z,97075.63
2023-07-14T23:40:31.854Z,97078.16
2023-07-14T23:42:42.435Z,97078.03
2023-07-14T23:44:50.435Z,97073.38
2023-07-14T23:46:58.675Z,97071.31
2023-07-14T23:49:07.332Z,97061.44
2023-07-14T23:51:18.699Z,97064.88
2023-07-14T23:53:37.151Z,97076.31
2023-07-14T23:55:45.121Z,97066.84
2023-07-14T23:57:56.297Z,97066.09
